createdAt,value
2019-05-05T00:00:55.353Z,4.17
2019-05-05T00:06:02.596Z,2.05
2019-05-05T00:11:15.446Z,3.83
2019-05-05T00:16:37.388Z,4.65
2019-05-05T00:21:41.366Z,4.22
2019-05-05T00:26:46.044Z,3.70
2019-05-05T00:31:49.541Z,1.57
2019-05-05T00:36:55.288Z,5.65
2019-05-05T00:41:59.438Z,5.33
2019-05-05T00:47:25.448Z,5.53
2019-05-05T00:52:30.626Z,3.92
2019-05-05T00:57:34.898Z,5.05
2019-05-05T01:02:44.793Z,4.15
2019-05-05T01:07:48.593Z,4.85
2019-05-05T01:12:54.460Z,6.17
2019-05-05T01:17:58.111Z,4.90
2019-05-05T01:23:01.448Z,5.40
2019-05-05T01:28:06.206Z,4.28
2019-05-05T01:33:25.043Z,4.80
2019-05-05T01:38:41.113Z,4.40
2019-05-05T01:43:45.368Z,1.32
2019-05-05T01:48:49.096Z,3.98
2019-05-05T01:53:54.342Z,1.95
2019-05-05T01:58:57.841Z,1.65
2019-05-05T02:04:01.286Z,1.20
2019-05-05T02:09:06.086Z,4.45
2019-05-05T02:14:10.499Z,2.42
2019-05-05T02:19:14.341Z,3.08
2019-05-05T02:24:17.968Z,1.22
2019-05-05T02:29:45.223Z,2.15
2019-05-05T02:34:56.205Z,1.05
2019-05-05T02:40:06.461Z,3.10
2019-05-05T02:45:08.247Z,2.12
2019-05-05T02:50:11.998Z,2.05
2019-05-05T02:55:18.843Z,2.12
2019-05-05T03:00:40.578Z,1.60
2019-05-05T03:05:44.598Z,2.55
2019-05-05T03:10:48.624Z,2.30
2019-05-05T03:16:10.894Z,2.75
2019-05-05T03:21:15.098Z,1.40
2019-05-05T03:26:19.298Z,1.40
2019-05-05T03:31:26.301Z,2.55
2019-05-05T03:36:30.528Z,2.37
2019-05-05T03:41:43.848Z,2.05
2019-05-05T03:46:47.782Z,1.07
2019-05-05T03:51:51.640Z,2.47
2019-05-05T03:57:07.289Z,2.02
2019-05-05T04:02:34.052Z,2.25
2019-05-05T04:12:44.502Z,0.78
2019-05-05T04:17:57.061Z,1.98
2019-05-05T04:23:00.470Z,2.30
2019-05-05T04:28:04.507Z,1.92
2019-05-05T04:33:07.842Z,3.27
2019-05-05T04:38:11.166Z,1.92
2019-05-05T04:43:14.560Z,1.92
2019-05-05T04:48:34.595Z,2.90
2019-05-05T04:53:57.017Z,3.27
2019-05-05T04:59:01.308Z,1.40
2019-05-05T05:04:25.937Z,4.00
2019-05-05T05:09:29.705Z,2.35
2019-05-05T05:14:33.731Z,3.70
2019-05-05T05:19:37.317Z,4.35
2019-05-05T05:24:40.982Z,1.92
2019-05-05T05:29:44.690Z,3.17
2019-05-05T05:34:49.073Z,4.10
2019-05-05T05:40:08.797Z,4.55
2019-05-05T05:45:47.281Z,4.12
2019-05-05T05:50:56.806Z,3.62
2019-05-05T05:56:00.930Z,4.40
2019-05-05T06:01:05.230Z,2.85
2019-05-05T06:06:08.707Z,5.33
2019-05-05T06:11:13.666Z,3.67
2019-05-05T06:16:17.698Z,2.17
2019-05-05T06:21:21.350Z,2.22
2019-05-05T06:26:24.962Z,3.30
2019-05-05T06:31:29.370Z,2.30
2019-05-05T06:36:34.022Z,2.90
2019-05-05T06:41:50.745Z,1.60
2019-05-05T06:47:06.184Z,4.30
2019-05-05T06:52:09.866Z,1.22
2019-05-05T06:57:14.380Z,2.42
2019-05-05T07:02:18.567Z,4.55
2019-05-05T07:07:23.626Z,3.10
2019-05-05T07:12:27.683Z,3.67
2019-05-05T07:17:31.169Z,4.90
2019-05-05T07:22:36.715Z,5.25
2019-05-05T07:27:40.765Z,4.12
2019-05-05T07:32:44.386Z,3.50
2019-05-05T07:37:47.840Z,3.62
2019-05-05T07:42:51.214Z,4.15
2019-05-05T07:47:55.785Z,2.70
2019-05-05T07:53:11.452Z,3.55
2019-05-05T07:58:05.778Z,4.62
2019-05-05T08:03:09.200Z,4.85
2019-05-05T08:08:13.906Z,5.15
2019-05-05T08:13:17.650Z,4.17
2019-05-05T08:18:29.702Z,4.50
2019-05-05T08:23:38.808Z,2.72
2019-05-05T08:28:47.543Z,3.00
2019-05-05T08:33:51.326Z,4.92
2019-05-05T08:38:54.862Z,2.90
2019-05-05T08:43:59.299Z,3.47
2019-05-05T08:49:04.430Z,5.28
2019-05-05T08:54:09.219Z,6.08
2019-05-05T08:59:14.300Z,5.35
2019-05-05T09:04:17.905Z,4.35
2019-05-05T09:09:21.463Z,1.60
2019-05-05T09:14:24.733Z,3.17
2019-05-05T09:19:28.229Z,3.92
2019-05-05T09:25:06.346Z,3.83
2019-05-05T09:30:14.125Z,2.25
2019-05-05T09:35:17.342Z,3.30
2019-05-05T09:40:34.410Z,3.83
2019-05-05T09:50:43.711Z,3.58
2019-05-05T09:55:47.125Z,3.92
2019-05-05T10:00:52.046Z,3.67
2019-05-05T10:05:57.175Z,3.50
2019-05-05T10:11:01.313Z,2.05
2019-05-05T10:16:06.595Z,2.77
2019-05-05T10:21:09.996Z,3.80
2019-05-05T10:26:15.025Z,3.77
2019-05-05T10:31:18.533Z,3.50
2019-05-05T10:36:21.858Z,4.92
2019-05-05T10:41:25.875Z,4.22
2019-05-05T10:46:29.465Z,4.30
2019-05-05T10:51:34.585Z,3.95
2019-05-05T10:56:38.377Z,2.27
2019-05-05T11:01:42.131Z,2.40
2019-05-05T11:06:46.219Z,2.05
2019-05-05T11:11:49.806Z,3.92
2019-05-05T11:16:54.670Z,2.22
2019-05-05T11:21:58.608Z,4.22
2019-05-05T11:27:04.315Z,4.50
2019-05-05T11:32:15.724Z,3.85
2019-05-05T11:37:20.808Z,3.47
2019-05-05T11:42:24.195Z,4.95
2019-05-05T11:47:28.466Z,1.90
2019-05-05T11:52:33.722Z,2.52
2019-05-05T11:57:37.532Z,4.28
2019-05-05T12:02:40.994Z,4.12
2019-05-05T12:07:44.410Z,3.65
2019-05-05T12:12:48.872Z,2.02
2019-05-05T12:17:54.571Z,3.50
2019-05-05T12:22:58.241Z,2.83
2019-05-05T12:28:08.493Z,2.95
2019-05-05T12:33:13.857Z,1.57
2019-05-05T12:38:17.767Z,3.52
2019-05-05T12:43:21.390Z,2.22
2019-05-05T12:48:30.664Z,3.37
2019-05-05T12:53:34.159Z,2.85
2019-05-05T12:58:37.576Z,2.42
2019-05-05T13:03:43.603Z,2.52
2019-05-05T13:08:47.547Z,2.72
2019-05-05T13:13:50.877Z,1.77
2019-05-05T13:18:54.231Z,2.08
2019-05-05T13:24:25.821Z,2.80
2019-05-05T13:29:29.225Z,1.35
2019-05-05T13:34:32.475Z,0.80
2019-05-05T13:39:36.123Z,1.45
2019-05-05T13:44:56.744Z,1.12
2019-05-05T13:50:23.416Z,0.85
2019-05-05T14:00:30.661Z,1.10
2019-05-05T14:05:34.449Z,1.40
2019-05-05T14:10:37.846Z,1.50
2019-05-05T14:15:43.982Z,1.42
2019-05-05T14:20:48.365Z,1.87
2019-05-05T14:25:54.442Z,1.42
2019-05-05T14:31:05.321Z,1.35
2019-05-05T14:36:28.688Z,1.40
2019-05-05T14:41:32.184Z,1.67
2019-05-05T14:46:35.662Z,2.27
2019-05-05T14:51:39.372Z,5.08
2019-05-05T14:56:44.047Z,5.40
2019-05-05T15:01:48.359Z,1.32
2019-05-05T15:07:05.001Z,5.50
2019-05-05T15:12:35.153Z,7.10
2019-05-05T15:17:38.472Z,4.53
2019-05-05T15:22:43.659Z,7.25
2019-05-05T15:27:47.246Z,1.60
2019-05-05T15:32:50.726Z,2.67
2019-05-05T15:37:54.605Z,3.15
2019-05-05T15:42:58.937Z,3.67
2019-05-05T15:48:04.577Z,3.95
2019-05-05T15:53:08.134Z,1.50
2019-05-05T15:58:14.003Z,3.45
2019-05-05T16:03:17.963Z,2.20
2019-05-05T16:08:22.194Z,2.15
2019-05-05T16:13:25.954Z,3.40
2019-05-05T16:18:37.198Z,2.67
2019-05-05T16:23:47.237Z,1.65
2019-05-05T16:28:50.950Z,1.00
2019-05-05T16:33:55.615Z,2.83
2019-05-05T16:38:59.249Z,2.00
2019-05-05T16:44:03.575Z,3.00
2019-05-05T16:49:07.873Z,1.32
2019-05-05T16:54:17.523Z,4.45
2019-05-05T16:59:20.949Z,4.62
2019-05-05T17:04:25.254Z,6.70
2019-05-05T17:09:28.735Z,7.53
2019-05-05T17:14:54.033Z,4.47
2019-05-05T17:20:07.363Z,3.20
2019-05-05T17:25:11.135Z,3.25
2019-05-05T17:30:17.797Z,4.58
2019-05-05T17:35:21.254Z,4.70
2019-05-05T17:40:43.347Z,3.70
2019-05-05T17:46:08.686Z,5.25
2019-05-05T17:51:31.299Z,4.85
2019-05-05T17:56:34.985Z,6.62
2019-05-05T18:01:39.155Z,6.17
2019-05-05T18:06:55.273Z,5.90
2019-05-05T18:12:19.142Z,5.55
2019-05-05T18:17:24.408Z,5.97
2019-05-05T18:22:28.794Z,6.90
2019-05-05T18:27:34.310Z,7.03
2019-05-05T18:32:38.470Z,6.72
2019-05-05T18:37:43.609Z,6.22
2019-05-05T18:42:47.371Z,7.22
2019-05-05T18:47:53.640Z,8.35
2019-05-05T18:52:58.015Z,7.50
2019-05-05T18:58:03.381Z,6.80
2019-05-05T19:03:17.930Z,6.58
2019-05-05T19:08:32.386Z,6.53
2019-05-05T19:13:36.004Z,8.93
2019-05-05T19:18:39.474Z,8.33
2019-05-05T19:23:44.710Z,9.05
2019-05-05T19:28:50.302Z,12.10
2019-05-05T19:33:55.834Z,10.72
2019-05-05T19:38:59.236Z,11.90
2019-05-05T19:44:04.681Z,12.18
2019-05-05T19:49:14.902Z,12.47
2019-05-05T19:54:18.503Z,12.10
2019-05-05T19:59:22.084Z,12.65
2019-05-05T20:04:25.572Z,15.00
2019-05-05T20:09:29.141Z,14.98
2019-05-05T20:14:34.317Z,16.52
2019-05-05T20:19:43.785Z,18.55
2019-05-05T20:24:46.967Z,17.95
2019-05-05T20:29:50.265Z,17.57
2019-05-05T20:35:18.814Z,18.67
2019-05-05T20:40:26.420Z,18.60
2019-05-05T20:45:31.942Z,19.25
2019-05-05T20:50:36.740Z,19.07
2019-05-05T20:55:40.177Z,20.82
2019-05-05T21:00:44.382Z,19.73
2019-05-05T21:05:47.921Z,18.42
2019-05-05T21:10:53.556Z,17.65
2019-05-05T21:15:57.149Z,14.98
2019-05-05T21:21:04.398Z,14.15
2019-05-05T21:26:14.835Z,12.82
2019-05-05T21:31:18.129Z,10.72
2019-05-05T21:36:24.325Z,9.63
2019-05-05T21:41:27.446Z,8.05
2019-05-05T21:46:31.017Z,8.38
2019-05-05T21:51:43.120Z,6.83
2019-05-05T21:57:14.053Z,5.90
2019-05-05T22:02:17.974Z,5.87
2019-05-05T22:07:21.535Z,6.03
2019-05-05T22:12:25.908Z,5.67
2019-05-05T22:17:29.174Z,5.87
2019-05-05T22:22:36.424Z,6.50
2019-05-05T22:27:40.435Z,7.65
2019-05-05T22:32:44.750Z,7.85
2019-05-05T22:37:48.332Z,7.80
2019-05-05T22:42:54.502Z,10.00
2019-05-05T22:47:58.282Z,9.20
2019-05-05T22:53:02.064Z,9.95
2019-05-05T22:58:05.466Z,9.28
2019-05-05T23:03:16.267Z,8.98
2019-05-05T23:08:19.959Z,8.43
2019-05-05T23:13:23.339Z,7.03
2019-05-05T23:18:27.113Z,6.90
2019-05-05T23:23:49.022Z,4.65
2019-05-05T23:28:53.735Z,4.83
2019-05-05T23:33:57.168Z,4.40
2019-05-05T23:39:00.813Z,4.47
2019-05-05T23:44:05.459Z,3.62
2019-05-05T23:49:08.789Z,3.45
2019-05-05T23:54:13.626Z,3.55
2019-05-05T23:59:18.056Z,3.25
